Terminal Aerodrome Forecast
Issued by NWS Wilmington, OH

Current Version | Previous Version | Graphics & Text | Print | Product List | Glossary On
Versions: 1 2 3 4 5 6 7 8 9 10 11 12 13 14 15 16 17 18
000
FTUS41 KILN 160350 AAB
TAFCMH
TAF AMD
KCMH 160350Z 1604/1624 24012KT P6SM BKN025 OVC035
     FM160500 26014KT P6SM FEW040
     FM160930 27013KT P6SM BKN015
     FM161800 29012KT P6SM BKN025=

USA.gov is the U.S. government's official web portal to all federal, state and local government web resources and services.